sensor_id;sensor_type;location;lat;lon;timestamp;P1;durP1;ratioP1;P2;durP2;ratioP2
41627;SDS011;27321;50.816;6.054;2023-03-01T01:18:37;8.70;;;5.87;;
41627;SDS011;27321;50.816;6.054;2023-03-01T01:21:39;9.43;;;5.85;;
41627;SDS011;27321;50.816;6.054;2023-03-01T01:24:41;8.30;;;5.70;;
41627;SDS011;27321;50.816;6.054;2023-03-01T01:27:42;8.50;;;6.03;;
41627;SDS011;27321;50.816;6.054;2023-03-01T01:30:43;8.37;;;6.03;;
41627;SDS011;27321;50.816;6.054;2023-03-01T01:33:44;8.67;;;5.50;;
41627;SDS011;27321;50.816;6.054;2023-03-01T01:36:49;8.57;;;5.88;;
41627;SDS011;27321;50.816;6.054;2023-03-01T01:39:54;9.73;;;5.90;;
41627;SDS011;27321;50.816;6.054;2023-03-01T01:42:55;11.37;;;6.00;;
41627;SDS011;27321;50.816;6.054;2023-03-01T01:45:57;10.17;;;6.33;;
41627;SDS011;27321;50.816;6.054;2023-03-01T01:49:04;10.00;;;5.83;;
41627;SDS011;27321;50.816;6.054;2023-03-01T01:52:27;10.20;;;6.10;;
41627;SDS011;27321;50.816;6.054;2023-03-01T01:55:32;8.90;;;6.30;;
41627;SDS011;27321;50.816;6.054;2023-03-01T01:58:33;9.10;;;5.95;;
41627;SDS011;27321;50.816;6.054;2023-03-01T02:01:36;8.33;;;5.83;;
41627;SDS011;27321;50.816;6.054;2023-03-01T02:04:37;9.45;;;5.63;;
41627;SDS011;27321;50.816;6.054;2023-03-01T02:07:39;8.50;;;6.10;;
41627;SDS011;27321;50.816;6.054;2023-03-01T02:10:42;8.67;;;5.67;;
41627;SDS011;27321;50.816;6.054;2023-03-01T02:13:44;9.77;;;6.32;;
41627;SDS011;27321;50.816;6.054;2023-03-01T02:16:47;8.87;;;5.87;;
41627;SDS011;27321;50.816;6.054;2023-03-01T02:23:20;7.67;;;5.73;;
41627;SDS011;27321;50.816;6.054;2023-03-01T02:29:41;9.57;;;6.50;;
41627;SDS011;27321;50.816;6.054;2023-03-01T02:32:44;7.83;;;5.73;;
41627;SDS011;27321;50.816;6.054;2023-03-01T02:35:45;9.70;;;6.10;;
41627;SDS011;27321;50.816;6.054;2023-03-01T02:38:47;9.15;;;6.20;;
41627;SDS011;27321;50.816;6.054;2023-03-01T02:41:51;10.70;;;6.20;;
41627;SDS011;27321;50.816;6.054;2023-03-01T02:44:54;8.00;;;5.70;;
41627;SDS011;27321;50.816;6.054;2023-03-01T02:47:56;8.98;;;6.30;;
41627;SDS011;27321;50.816;6.054;2023-03-01T02:54:31;10.23;;;5.80;;
41627;SDS011;27321;50.816;6.054;2023-03-01T02:57:48;9.30;;;6.07;;
41627;SDS011;27321;50.816;6.054;2023-03-01T03:00:52;9.73;;;6.40;;
41627;SDS011;27321;50.816;6.054;2023-03-01T03:03:54;10.07;;;6.20;;
41627;SDS011;27321;50.816;6.054;2023-03-01T03:06:55;10.00;;;6.03;;
41627;SDS011;27321;50.816;6.054;2023-03-01T03:09:55;9.07;;;6.00;;
41627;SDS011;27321;50.816;6.054;2023-03-01T03:13:01;8.33;;;6.10;;
41627;SDS011;27321;50.816;6.054;2023-03-01T03:16:11;8.13;;;5.83;;
41627;SDS011;27321;50.816;6.054;2023-03-01T03:19:12;8.33;;;5.93;;
41627;SDS011;27321;50.816;6.054;2023-03-01T03:22:13;8.23;;;5.53;;
41627;SDS011;27321;50.816;6.054;2023-03-01T03:25:15;8.50;;;5.75;;
41627;SDS011;27321;50.816;6.054;2023-03-01T03:28:17;8.97;;;5.83;;
41627;SDS011;27321;50.816;6.054;2023-03-01T03:31:18;8.15;;;6.10;;
41627;SDS011;27321;50.816;6.054;2023-03-01T03:34:19;9.73;;;6.20;;
41627;SDS011;27321;50.816;6.054;2023-03-01T03:37:20;9.77;;;5.97;;
41627;SDS011;27321;50.816;6.054;2023-03-01T03:40:46;10.53;;;6.83;;
41627;SDS011;27321;50.816;6.054;2023-03-01T03:43:49;9.80;;;6.30;;
41627;SDS011;27321;50.816;6.054;2023-03-01T03:46:51;5.90;;;3.95;;
41627;SDS011;27321;50.816;6.054;2023-03-01T03:49:51;8.60;;;5.93;;
41627;SDS011;27321;50.816;6.054;2023-03-01T03:52:52;11.87;;;5.67;;
41627;SDS011;27321;50.816;6.054;2023-03-01T03:55:53;9.30;;;6.57;;
41627;SDS011;27321;50.816;6.054;2023-03-01T03:58:55;9.07;;;6.50;;
41627;SDS011;27321;50.816;6.054;2023-03-01T04:01:56;10.13;;;6.50;;
41627;SDS011;27321;50.816;6.054;2023-03-01T04:04:57;7.23;;;5.43;;
41627;SDS011;27321;50.816;6.054;2023-03-01T04:07:58;10.47;;;6.90;;
41627;SDS011;27321;50.816;6.054;2023-03-01T04:11:03;8.90;;;6.17;;
41627;SDS011;27321;50.816;6.054;2023-03-01T04:14:24;9.43;;;6.80;;
41627;SDS011;27321;50.816;6.054;2023-03-01T04:17:25;10.50;;;6.97;;
41627;SDS011;27321;50.816;6.054;2023-03-01T04:20:28;8.70;;;6.45;;
41627;SDS011;27321;50.816;6.054;2023-03-01T04:23:31;10.20;;;5.70;;
41627;SDS011;27321;50.816;6.054;2023-03-01T04:26:32;9.43;;;6.50;;
41627;SDS011;27321;50.816;6.054;2023-03-01T04:29:33;8.60;;;4.83;;
41627;SDS011;27321;50.816;6.054;2023-03-01T04:32:34;10.40;;;6.40;;
41627;SDS011;27321;50.816;6.054;2023-03-01T04:35:35;12.17;;;6.40;;
41627;SDS011;27321;50.816;6.054;2023-03-01T04:38:37;11.17;;;6.50;;
41627;SDS011;27321;50.816;6.054;2023-03-01T04:41:39;9.50;;;6.50;;
41627;SDS011;27321;50.816;6.054;2023-03-01T04:44:41;9.52;;;6.60;;
41627;SDS011;27321;50.816;6.054;2023-03-01T04:47:42;10.43;;;6.33;;
41627;SDS011;27321;50.816;6.054;2023-03-01T04:50:46;9.97;;;5.87;;
41627;SDS011;27321;50.816;6.054;2023-03-01T04:53:47;9.70;;;6.60;;
41627;SDS011;27321;50.816;6.054;2023-03-01T04:56:48;11.02;;;6.20;;
41627;SDS011;27321;50.816;6.054;2023-03-01T04:59:49;11.57;;;6.57;;
41627;SDS011;27321;50.816;6.054;2023-03-01T05:02:54;10.70;;;7.07;;
41627;SDS011;27321;50.816;6.054;2023-03-01T05:06:02;12.43;;;6.97;;
41627;SDS011;27321;50.816;6.054;2023-03-01T05:09:03;9.27;;;6.07;;
41627;SDS011;27321;50.816;6.054;2023-03-01T05:12:04;8.27;;;6.03;;
41627;SDS011;27321;50.816;6.054;2023-03-01T05:15:05;9.82;;;6.47;;
41627;SDS011;27321;50.816;6.054;2023-03-01T05:18:07;10.80;;;6.53;;
41627;SDS011;27321;50.816;6.054;2023-03-01T05:21:12;9.27;;;6.70;;
41627;SDS011;27321;50.816;6.054;2023-03-01T05:24:17;8.60;;;6.07;;
41627;SDS011;27321;50.816;6.054;2023-03-01T05:27:18;11.03;;;6.40;;
41627;SDS011;27321;50.816;6.054;2023-03-01T05:30:22;9.50;;;6.10;;
41627;SDS011;27321;50.816;6.054;2023-03-01T05:33:23;8.80;;;6.30;;
41627;SDS011;27321;50.816;6.054;2023-03-01T05:36:26;10.57;;;6.60;;
41627;SDS011;27321;50.816;6.054;2023-03-01T05:39:27;9.10;;;5.95;;
41627;SDS011;27321;50.816;6.054;2023-03-01T05:42:29;9.23;;;6.43;;
41627;SDS011;27321;50.816;6.054;2023-03-01T05:45:31;9.43;;;6.23;;
41627;SDS011;27321;50.816;6.054;2023-03-01T05:48:35;8.70;;;6.13;;
41627;SDS011;27321;50.816;6.054;2023-03-01T05:51:36;15.47;;;6.70;;
41627;SDS011;27321;50.816;6.054;2023-03-01T05:54:37;10.07;;;6.20;;
41627;SDS011;27321;50.816;6.054;2023-03-01T05:57:38;9.30;;;6.43;;
41627;SDS011;27321;50.816;6.054;2023-03-01T06:00:39;11.10;;;7.03;;
41627;SDS011;27321;50.816;6.054;2023-03-01T06:03:41;10.13;;;6.45;;
41627;SDS011;27321;50.816;6.054;2023-03-01T06:06:42;8.85;;;6.13;;
41627;SDS011;27321;50.816;6.054;2023-03-01T06:09:43;9.83;;;6.60;;
41627;SDS011;27321;50.816;6.054;2023-03-01T06:12:45;11.60;;;6.03;;
41627;SDS011;27321;50.816;6.054;2023-03-01T06:15:46;9.27;;;6.13;;
41627;SDS011;27321;50.816;6.054;2023-03-01T06:18:47;10.43;;;6.77;;
41627;SDS011;27321;50.816;6.054;2023-03-01T06:21:48;11.10;;;6.53;;
41627;SDS011;27321;50.816;6.054;2023-03-01T06:24:49;8.53;;;6.10;;
41627;SDS011;27321;50.816;6.054;2023-03-01T06:27:50;10.23;;;7.13;;
41627;SDS011;27321;50.816;6.054;2023-03-01T06:30:54;11.17;;;6.43;;
41627;SDS011;27321;50.816;6.054;2023-03-01T06:33:55;8.17;;;7.33;;
41627;SDS011;27321;50.816;6.054;2023-03-01T06:36:56;9.33;;;6.67;;
41627;SDS011;27321;50.816;6.054;2023-03-01T06:39:57;10.10;;;6.80;;
41627;SDS011;27321;50.816;6.054;2023-03-01T06:42:58;10.63;;;6.67;;
41627;SDS011;27321;50.816;6.054;2023-03-01T06:45:59;8.67;;;6.93;;
41627;SDS011;27321;50.816;6.054;2023-03-01T06:49:01;8.63;;;6.22;;
41627;SDS011;27321;50.816;6.054;2023-03-01T06:52:04;10.10;;;6.70;;
41627;SDS011;27321;50.816;6.054;2023-03-01T06:55:05;11.20;;;7.17;;
41627;SDS011;27321;50.816;6.054;2023-03-01T06:58:08;10.68;;;6.53;;
41627;SDS011;27321;50.816;6.054;2023-03-01T07:01:11;9.20;;;6.67;;
41627;SDS011;27321;50.816;6.054;2023-03-01T07:04:12;13.60;;;12.20;;
41627;SDS011;27321;50.816;6.054;2023-03-01T07:07:16;11.03;;;7.03;;
41627;SDS011;27321;50.816;6.054;2023-03-01T07:10:18;11.82;;;7.45;;
41627;SDS011;27321;50.816;6.054;2023-03-01T07:13:19;11.23;;;7.78;;
41627;SDS011;27321;50.816;6.054;2023-03-01T07:16:20;11.10;;;7.70;;
41627;SDS011;27321;50.816;6.054;2023-03-01T07:19:22;12.98;;;8.27;;
41627;SDS011;27321;50.816;6.054;2023-03-01T07:22:23;10.93;;;8.07;;
41627;SDS011;27321;50.816;6.054;2023-03-01T07:25:24;15.00;;;8.73;;
41627;SDS011;27321;50.816;6.054;2023-03-01T07:28:25;12.55;;;8.10;;
41627;SDS011;27321;50.816;6.054;2023-03-01T07:31:26;14.03;;;9.03;;
41627;SDS011;27321;50.816;6.054;2023-03-01T07:34:28;11.10;;;7.75;;
41627;SDS011;27321;50.816;6.054;2023-03-01T07:37:29;13.38;;;8.70;;
41627;SDS011;27321;50.816;6.054;2023-03-01T07:40:30;21.03;;;13.27;;
41627;SDS011;27321;50.816;6.054;2023-03-01T07:43:31;17.92;;;13.77;;
41627;SDS011;27321;50.816;6.054;2023-03-01T07:46:32;17.10;;;10.55;;
41627;SDS011;27321;50.816;6.054;2023-03-01T07:49:34;12.30;;;8.07;;
41627;SDS011;27321;50.816;6.054;2023-03-01T07:52:35;14.43;;;10.57;;
41627;SDS011;27321;50.816;6.054;2023-03-01T07:55:36;17.53;;;10.77;;
41627;SDS011;27321;50.816;6.054;2023-03-01T08:01:42;15.63;;;9.83;;
41627;SDS011;27321;50.816;6.054;2023-03-01T08:04:43;18.98;;;14.63;;
41627;SDS011;27321;50.816;6.054;2023-03-01T08:07:44;20.67;;;14.70;;
41627;SDS011;27321;50.816;6.054;2023-03-01T08:10:45;11.93;;;8.83;;
41627;SDS011;27321;50.816;6.054;2023-03-01T08:13:49;14.00;;;7.53;;
41627;SDS011;27321;50.816;6.054;2023-03-01T08:16:50;17.83;;;11.47;;
41627;SDS011;27321;50.816;6.054;2023-03-01T08:19:51;13.17;;;9.37;;
41627;SDS011;27321;50.816;6.054;2023-03-01T08:22:52;17.53;;;10.63;;
41627;SDS011;27321;50.816;6.054;2023-03-01T08:25:53;17.00;;;10.33;;
41627;SDS011;27321;50.816;6.054;2023-03-01T08:28:54;13.80;;;10.17;;
41627;SDS011;27321;50.816;6.054;2023-03-01T08:31:55;16.53;;;10.93;;
41627;SDS011;27321;50.816;6.054;2023-03-01T08:34:56;10.15;;;6.97;;
41627;SDS011;27321;50.816;6.054;2023-03-01T08:37:57;17.52;;;10.52;;
41627;SDS011;27321;50.816;6.054;2023-03-01T08:40:59;19.83;;;11.97;;
41627;SDS011;27321;50.816;6.054;2023-03-01T08:44:09;19.70;;;12.83;;
41627;SDS011;27321;50.816;6.054;2023-03-01T08:47:17;37.20;;;24.23;;
41627;SDS011;27321;50.816;6.054;2023-03-01T08:50:18;25.88;;;18.20;;
41627;SDS011;27321;50.816;6.054;2023-03-01T08:53:19;40.08;;;24.23;;
41627;SDS011;27321;50.816;6.054;2023-03-01T08:56:20;29.80;;;16.87;;
41627;SDS011;27321;50.816;6.054;2023-03-01T08:59:21;39.47;;;21.23;;
41627;SDS011;27321;50.816;6.054;2023-03-01T09:02:22;56.00;;;24.60;;
41627;SDS011;27321;50.816;6.054;2023-03-01T09:05:23;113.07;;;48.03;;
41627;SDS011;27321;50.816;6.054;2023-03-01T09:08:24;173.20;;;60.07;;
41627;SDS011;27321;50.816;6.054;2023-03-01T09:11:25;89.57;;;35.45;;
41627;SDS011;27321;50.816;6.054;2023-03-01T09:14:26;75.65;;;30.25;;
41627;SDS011;27321;50.816;6.054;2023-03-01T09:17:27;28.47;;;14.83;;
41627;SDS011;27321;50.816;6.054;2023-03-01T09:20:29;24.92;;;17.08;;
41627;SDS011;27321;50.816;6.054;2023-03-01T09:23:32;22.10;;;12.10;;
41627;SDS011;27321;50.816;6.054;2023-03-01T09:26:40;16.57;;;11.70;;
41627;SDS011;27321;50.816;6.054;2023-03-01T09:29:41;16.65;;;10.10;;
41627;SDS011;27321;50.816;6.054;2023-03-01T09:32:44;15.90;;;10.07;;
41627;SDS011;27321;50.816;6.054;2023-03-01T09:35:46;14.43;;;9.70;;
41627;SDS011;27321;50.816;6.054;2023-03-01T09:42:10;20.53;;;11.70;;
41627;SDS011;27321;50.816;6.054;2023-03-01T09:45:18;17.07;;;10.33;;
41627;SDS011;27321;50.816;6.054;2023-03-01T09:48:33;16.40;;;10.40;;
41627;SDS011;27321;50.816;6.054;2023-03-01T09:51:57;19.57;;;11.03;;
41627;SDS011;27321;50.816;6.054;2023-03-01T09:55:14;16.13;;;9.87;;
41627;SDS011;27321;50.816;6.054;2023-03-01T09:58:49;18.67;;;10.47;;
41627;SDS011;27321;50.816;6.054;2023-03-01T10:05:37;18.57;;;9.93;;
41627;SDS011;27321;50.816;6.054;2023-03-01T10:12:01;15.17;;;10.20;;
41627;SDS011;27321;50.816;6.054;2023-03-01T10:15:15;18.67;;;10.73;;
41627;SDS011;27321;50.816;6.054;2023-03-01T10:18:43;14.27;;;9.47;;
41627;SDS011;27321;50.816;6.054;2023-03-01T10:21:53;18.10;;;11.00;;
41627;SDS011;27321;50.816;6.054;2023-03-01T10:24:58;16.23;;;9.60;;
41627;SDS011;27321;50.816;6.054;2023-03-01T10:28:05;15.77;;;10.23;;
41627;SDS011;27321;50.816;6.054;2023-03-01T10:31:47;17.00;;;10.20;;
41627;SDS011;27321;50.816;6.054;2023-03-01T10:34:51;15.77;;;10.20;;
41627;SDS011;27321;50.816;6.054;2023-03-01T10:38:02;13.90;;;9.33;;
41627;SDS011;27321;50.816;6.054;2023-03-01T10:41:09;17.20;;;10.43;;
41627;SDS011;27321;50.816;6.054;2023-03-01T10:44:10;17.67;;;10.70;;
41627;SDS011;27321;50.816;6.054;2023-03-01T10:47:45;18.40;;;10.40;;
41627;SDS011;27321;50.816;6.054;2023-03-01T10:50:47;14.93;;;10.00;;
41627;SDS011;27321;50.816;6.054;2023-03-01T10:53:51;16.13;;;10.07;;
41627;SDS011;27321;50.816;6.054;2023-03-01T10:57:03;16.10;;;10.32;;
41627;SDS011;27321;50.816;6.054;2023-03-01T11:00:22;16.43;;;11.27;;
41627;SDS011;27321;50.816;6.054;2023-03-01T11:03:34;14.83;;;9.97;;
41627;SDS011;27321;50.816;6.054;2023-03-01T11:06:40;20.73;;;10.57;;
41627;SDS011;27321;50.816;6.054;2023-03-01T11:09:42;16.80;;;10.20;;
41627;SDS011;27321;50.816;6.054;2023-03-01T11:12:43;19.73;;;10.30;;
41627;SDS011;27321;50.816;6.054;2023-03-01T11:16:05;15.07;;;10.23;;
41627;SDS011;27321;50.816;6.054;2023-03-01T11:22:18;18.13;;;10.53;;
41627;SDS011;27321;50.816;6.054;2023-03-01T11:25:24;15.53;;;9.87;;
41627;SDS011;27321;50.816;6.054;2023-03-01T11:28:30;19.50;;;9.90;;
41627;SDS011;27321;50.816;6.054;2023-03-01T11:31:31;19.23;;;10.65;;
41627;SDS011;27321;50.816;6.054;2023-03-01T11:34:42;14.00;;;9.60;;
41627;SDS011;27321;50.816;6.054;2023-03-01T11:44:18;16.13;;;10.15;;
41627;SDS011;27321;50.816;6.054;2023-03-01T11:51:05;14.77;;;10.03;;
41627;SDS011;27321;50.816;6.054;2023-03-01T11:54:41;17.63;;;9.87;;
41627;SDS011;27321;50.816;6.054;2023-03-01T12:13:49;16.77;;;10.60;;
41627;SDS011;27321;50.816;6.054;2023-03-01T12:20:40;20.90;;;10.67;;
41627;SDS011;27321;50.816;6.054;2023-03-01T12:24:28;15.40;;;10.17;;
41627;SDS011;27321;50.816;6.054;2023-03-01T12:27:42;18.03;;;10.33;;
41627;SDS011;27321;50.816;6.054;2023-03-01T12:46:20;16.20;;;9.77;;
41627;SDS011;27321;50.816;6.054;2023-03-01T12:49:51;15.50;;;10.07;;
41627;SDS011;27321;50.816;6.054;2023-03-01T12:53:00;17.80;;;10.25;;
41627;SDS011;27321;50.816;6.054;2023-03-01T12:56:09;14.23;;;10.50;;
41627;SDS011;27321;50.816;6.054;2023-03-01T13:06:04;17.40;;;10.27;;
41627;SDS011;27321;50.816;6.054;2023-03-01T13:09:29;15.13;;;9.90;;
41627;SDS011;27321;50.816;6.054;2023-03-01T13:13:24;12.73;;;9.40;;
41627;SDS011;27321;50.816;6.054;2023-03-01T13:19:29;14.67;;;9.53;;
41627;SDS011;27321;50.816;6.054;2023-03-01T13:22:32;14.63;;;9.60;;
41627;SDS011;27321;50.816;6.054;2023-03-01T13:25:34;16.00;;;9.20;;
41627;SDS011;27321;50.816;6.054;2023-03-01T13:28:42;13.77;;;8.98;;
41627;SDS011;27321;50.816;6.054;2023-03-01T13:34:59;22.73;;;14.43;;
41627;SDS011;27321;50.816;6.054;2023-03-01T13:38:36;18.10;;;10.93;;
41627;SDS011;27321;50.816;6.054;2023-03-01T13:41:48;16.52;;;9.63;;
41627;SDS011;27321;50.816;6.054;2023-03-01T13:44:51;18.40;;;9.90;;
41627;SDS011;27321;50.816;6.054;2023-03-01T13:47:53;18.87;;;10.57;;
41627;SDS011;27321;50.816;6.054;2023-03-01T13:50:59;14.97;;;9.50;;
41627;SDS011;27321;50.816;6.054;2023-03-01T13:54:03;13.73;;;8.47;;
41627;SDS011;27321;50.816;6.054;2023-03-01T13:57:05;12.77;;;9.00;;
41627;SDS011;27321;50.816;6.054;2023-03-01T14:00:24;13.93;;;9.30;;
41627;SDS011;27321;50.816;6.054;2023-03-01T14:03:41;13.70;;;9.13;;
41627;SDS011;27321;50.816;6.054;2023-03-01T14:06:43;14.97;;;9.43;;
41627;SDS011;27321;50.816;6.054;2023-03-01T14:09:47;12.87;;;8.97;;
41627;SDS011;27321;50.816;6.054;2023-03-01T14:13:12;14.90;;;8.73;;
41627;SDS011;27321;50.816;6.054;2023-03-01T14:16:41;15.83;;;8.83;;
41627;SDS011;27321;50.816;6.054;2023-03-01T14:19:57;14.87;;;8.67;;
41627;SDS011;27321;50.816;6.054;2023-03-01T14:23:10;12.77;;;8.10;;
41627;SDS011;27321;50.816;6.054;2023-03-01T14:26:19;13.27;;;8.43;;
41627;SDS011;27321;50.816;6.054;2023-03-01T14:32:28;14.77;;;8.53;;
41627;SDS011;27321;50.816;6.054;2023-03-01T14:35:34;14.13;;;8.07;;
41627;SDS011;27321;50.816;6.054;2023-03-01T14:41:43;12.27;;;8.10;;
41627;SDS011;27321;50.816;6.054;2023-03-01T14:44:45;11.57;;;7.65;;
41627;SDS011;27321;50.816;6.054;2023-03-01T14:47:50;13.93;;;8.07;;
41627;SDS011;27321;50.816;6.054;2023-03-01T14:50:51;13.02;;;7.60;;
41627;SDS011;27321;50.816;6.054;2023-03-01T14:53:52;13.38;;;7.72;;
41627;SDS011;27321;50.816;6.054;2023-03-01T14:56:57;15.05;;;8.68;;
41627;SDS011;27321;50.816;6.054;2023-03-01T15:00:01;14.50;;;7.47;;
41627;SDS011;27321;50.816;6.054;2023-03-01T15:03:08;13.57;;;7.73;;
41627;SDS011;27321;50.816;6.054;2023-03-01T15:06:19;12.03;;;7.70;;
41627;SDS011;27321;50.816;6.054;2023-03-01T15:09:22;11.23;;;7.90;;
41627;SDS011;27321;50.816;6.054;2023-03-01T15:18:30;11.00;;;7.00;;
41627;SDS011;27321;50.816;6.054;2023-03-01T15:21:37;12.00;;;6.82;;
41627;SDS011;27321;50.816;6.054;2023-03-01T15:24:39;11.87;;;7.47;;
41627;SDS011;27321;50.816;6.054;2023-03-01T15:27:40;13.27;;;7.15;;
41627;SDS011;27321;50.816;6.054;2023-03-01T15:30:51;12.17;;;7.40;;
41627;SDS011;27321;50.816;6.054;2023-03-01T15:34:43;13.43;;;6.87;;
41627;SDS011;27321;50.816;6.054;2023-03-01T15:40:49;8.43;;;6.23;;
41627;SDS011;27321;50.816;6.054;2023-03-01T15:43:51;8.93;;;6.13;;
41627;SDS011;27321;50.816;6.054;2023-03-01T15:46:56;9.70;;;6.90;;
41627;SDS011;27321;50.816;6.054;2023-03-01T15:49:58;10.93;;;6.45;;
41627;SDS011;27321;50.816;6.054;2023-03-01T15:53:03;9.23;;;6.50;;
41627;SDS011;27321;50.816;6.054;2023-03-01T15:56:08;9.90;;;6.90;;
41627;SDS011;27321;50.816;6.054;2023-03-01T15:59:08;8.70;;;6.40;;
41627;SDS011;27321;50.816;6.054;2023-03-01T16:02:13;8.60;;;6.17;;
41627;SDS011;27321;50.816;6.054;2023-03-01T16:05:20;13.23;;;6.18;;
41627;SDS011;27321;50.816;6.054;2023-03-01T16:08:24;11.60;;;7.03;;
41627;SDS011;27321;50.816;6.054;2023-03-01T16:11:25;10.77;;;6.70;;
41627;SDS011;27321;50.816;6.054;2023-03-01T16:14:27;9.63;;;7.05;;
41627;SDS011;27321;50.816;6.054;2023-03-01T16:17:28;9.73;;;6.93;;
41627;SDS011;27321;50.816;6.054;2023-03-01T16:20:29;8.90;;;6.30;;
41627;SDS011;27321;50.816;6.054;2023-03-01T16:23:30;10.57;;;6.73;;
41627;SDS011;27321;50.816;6.054;2023-03-01T16:26:31;13.18;;;6.72;;
41627;SDS011;27321;50.816;6.054;2023-03-01T16:29:35;12.43;;;6.43;;
41627;SDS011;27321;50.816;6.054;2023-03-01T16:32:40;12.83;;;6.50;;
41627;SDS011;27321;50.816;6.054;2023-03-01T16:35:43;14.67;;;7.70;;
41627;SDS011;27321;50.816;6.054;2023-03-01T16:38:44;11.87;;;6.63;;
41627;SDS011;27321;50.816;6.054;2023-03-01T16:41:48;10.53;;;6.73;;
41627;SDS011;27321;50.816;6.054;2023-03-01T16:44:54;11.43;;;7.03;;
41627;SDS011;27321;50.816;6.054;2023-03-01T16:47:55;13.13;;;7.50;;
41627;SDS011;27321;50.816;6.054;2023-03-01T16:51:00;9.37;;;6.17;;
41627;SDS011;27321;50.816;6.054;2023-03-01T16:54:01;8.97;;;6.73;;
41627;SDS011;27321;50.816;6.054;2023-03-01T16:57:04;12.23;;;7.37;;
41627;SDS011;27321;50.816;6.054;2023-03-01T17:00:06;11.87;;;7.20;;
41627;SDS011;27321;50.816;6.054;2023-03-01T17:03:12;10.97;;;6.80;;
41627;SDS011;27321;50.816;6.054;2023-03-01T17:06:15;10.20;;;6.47;;
41627;SDS011;27321;50.816;6.054;2023-03-01T17:09:20;10.50;;;6.33;;
41627;SDS011;27321;50.816;6.054;2023-03-01T17:12:22;10.73;;;7.18;;
41627;SDS011;27321;50.816;6.054;2023-03-01T17:15:23;11.97;;;7.20;;
41627;SDS011;27321;50.816;6.054;2023-03-01T17:18:24;13.65;;;6.60;;
41627;SDS011;27321;50.816;6.054;2023-03-01T17:21:25;9.77;;;6.10;;
41627;SDS011;27321;50.816;6.054;2023-03-01T17:24:26;14.37;;;7.07;;
41627;SDS011;27321;50.816;6.054;2023-03-01T17:27:29;12.07;;;6.73;;
41627;SDS011;27321;50.816;6.054;2023-03-01T17:30:34;10.30;;;6.30;;
41627;SDS011;27321;50.816;6.054;2023-03-01T17:33:35;10.87;;;6.40;;
41627;SDS011;27321;50.816;6.054;2023-03-01T17:36:36;12.82;;;6.60;;
41627;SDS011;27321;50.816;6.054;2023-03-01T17:39:43;11.07;;;7.03;;
41627;SDS011;27321;50.816;6.054;2023-03-01T17:42:44;11.33;;;7.13;;
41627;SDS011;27321;50.816;6.054;2023-03-01T17:45:46;9.73;;;6.63;;
41627;SDS011;27321;50.816;6.054;2023-03-01T17:48:50;9.17;;;6.43;;
41627;SDS011;27321;50.816;6.054;2023-03-01T17:51:51;10.73;;;6.75;;
41627;SDS011;27321;50.816;6.054;2023-03-01T17:54:55;10.83;;;6.77;;
41627;SDS011;27321;50.816;6.054;2023-03-01T17:57:56;11.57;;;7.23;;
41627;SDS011;27321;50.816;6.054;2023-03-01T18:04:16;8.80;;;6.47;;
41627;SDS011;27321;50.816;6.054;2023-03-01T18:07:19;10.50;;;6.57;;
41627;SDS011;27321;50.816;6.054;2023-03-01T18:10:20;11.77;;;7.07;;
41627;SDS011;27321;50.816;6.054;2023-03-01T18:13:21;8.73;;;6.55;;
41627;SDS011;27321;50.816;6.054;2023-03-01T18:16:22;10.15;;;6.40;;
41627;SDS011;27321;50.816;6.054;2023-03-01T18:19:24;10.80;;;7.05;;
41627;SDS011;27321;50.816;6.054;2023-03-01T18:22:25;12.43;;;7.40;;
41627;SDS011;27321;50.816;6.054;2023-03-01T18:25:26;12.77;;;8.70;;
41627;SDS011;27321;50.816;6.054;2023-03-01T18:28:27;11.95;;;7.80;;
41627;SDS011;27321;50.816;6.054;2023-03-01T18:31:30;12.30;;;7.33;;
41627;SDS011;27321;50.816;6.054;2023-03-01T18:34:32;10.27;;;7.10;;
41627;SDS011;27321;50.816;6.054;2023-03-01T18:37:34;10.40;;;6.35;;
41627;SDS011;27321;50.816;6.054;2023-03-01T18:40:35;11.10;;;6.82;;
41627;SDS011;27321;50.816;6.054;2023-03-01T18:43:36;10.80;;;7.20;;
41627;SDS011;27321;50.816;6.054;2023-03-01T18:46:39;11.73;;;7.57;;
41627;SDS011;27321;50.816;6.054;2023-03-01T18:49:40;11.57;;;7.40;;
41627;SDS011;27321;50.816;6.054;2023-03-01T18:52:42;13.20;;;7.57;;
41627;SDS011;27321;50.816;6.054;2023-03-01T18:55:43;11.87;;;7.27;;
41627;SDS011;27321;50.816;6.054;2023-03-01T18:58:44;11.00;;;7.40;;
41627;SDS011;27321;50.816;6.054;2023-03-01T19:01:45;13.87;;;9.57;;
41627;SDS011;27321;50.816;6.054;2023-03-01T19:04:48;18.10;;;10.32;;
41627;SDS011;27321;50.816;6.054;2023-03-01T19:07:50;12.80;;;8.47;;
41627;SDS011;27321;50.816;6.054;2023-03-01T19:10:58;12.15;;;8.02;;
41627;SDS011;27321;50.816;6.054;2023-03-01T19:14:02;15.03;;;10.00;;
41627;SDS011;27321;50.816;6.054;2023-03-01T19:17:04;26.02;;;14.10;;
41627;SDS011;27321;50.816;6.054;2023-03-01T19:20:05;18.17;;;11.73;;
41627;SDS011;27321;50.816;6.054;2023-03-01T19:23:07;20.83;;;11.27;;
41627;SDS011;27321;50.816;6.054;2023-03-01T19:26:09;16.73;;;9.23;;
41627;SDS011;27321;50.816;6.054;2023-03-01T19:29:13;12.57;;;8.57;;
41627;SDS011;27321;50.816;6.054;2023-03-01T19:32:17;12.70;;;7.83;;
41627;SDS011;27321;50.816;6.054;2023-03-01T19:35:18;13.93;;;7.40;;
41627;SDS011;27321;50.816;6.054;2023-03-01T19:38:19;12.30;;;7.73;;
41627;SDS011;27321;50.816;6.054;2023-03-01T19:41:21;13.30;;;7.45;;
41627;SDS011;27321;50.816;6.054;2023-03-01T19:44:23;12.82;;;8.15;;
41627;SDS011;27321;50.816;6.054;2023-03-01T19:47:24;11.43;;;7.22;;
41627;SDS011;27321;50.816;6.054;2023-03-01T19:50:25;13.40;;;8.98;;
41627;SDS011;27321;50.816;6.054;2023-03-01T19:53:26;12.50;;;8.20;;
41627;SDS011;27321;50.816;6.054;2023-03-01T19:56:27;12.55;;;7.00;;
41627;SDS011;27321;50.816;6.054;2023-03-01T19:59:29;15.25;;;7.65;;
41627;SDS011;27321;50.816;6.054;2023-03-01T20:02:30;13.32;;;7.95;;
41627;SDS011;27321;50.816;6.054;2023-03-01T20:05:32;14.83;;;8.20;;
41627;SDS011;27321;50.816;6.054;2023-03-01T20:08:34;9.83;;;6.30;;
41627;SDS011;27321;50.816;6.054;2023-03-01T20:11:35;11.27;;;6.73;;
41627;SDS011;27321;50.816;6.054;2023-03-01T20:14:37;13.00;;;7.47;;
41627;SDS011;27321;50.816;6.054;2023-03-01T20:17:38;13.40;;;7.78;;
41627;SDS011;27321;50.816;6.054;2023-03-01T20:20:39;12.83;;;7.57;;
41627;SDS011;27321;50.816;6.054;2023-03-01T20:23:40;14.93;;;7.65;;
41627;SDS011;27321;50.816;6.054;2023-03-01T20:26:42;16.45;;;9.68;;
41627;SDS011;27321;50.816;6.054;2023-03-01T20:29:43;13.93;;;8.30;;
41627;SDS011;27321;50.816;6.054;2023-03-01T20:35:46;12.27;;;6.27;;
41627;SDS011;27321;50.816;6.054;2023-03-01T20:38:47;10.77;;;7.03;;
41627;SDS011;27321;50.816;6.054;2023-03-01T20:41:48;11.88;;;7.07;;
41627;SDS011;27321;50.816;6.054;2023-03-01T20:44:49;9.97;;;6.80;;
41627;SDS011;27321;50.816;6.054;2023-03-01T20:47:50;17.50;;;8.73;;
41627;SDS011;27321;50.816;6.054;2023-03-01T20:50:51;18.23;;;10.30;;
41627;SDS011;27321;50.816;6.054;2023-03-01T20:53:52;19.65;;;10.88;;
41627;SDS011;27321;50.816;6.054;2023-03-01T20:56:53;18.90;;;10.97;;
41627;SDS011;27321;50.816;6.054;2023-03-01T20:59:55;20.40;;;11.18;;
41627;SDS011;27321;50.816;6.054;2023-03-01T21:02:56;18.58;;;10.93;;
41627;SDS011;27321;50.816;6.054;2023-03-01T21:05:57;19.50;;;10.90;;
41627;SDS011;27321;50.816;6.054;2023-03-01T21:09:01;18.70;;;9.97;;
41627;SDS011;27321;50.816;6.054;2023-03-01T21:12:03;15.00;;;9.15;;
41627;SDS011;27321;50.816;6.054;2023-03-01T21:15:04;13.68;;;9.00;;
41627;SDS011;27321;50.816;6.054;2023-03-01T21:18:06;16.88;;;9.40;;
41627;SDS011;27321;50.816;6.054;2023-03-01T21:21:08;16.08;;;7.88;;